createdAt,value
2022-11-19T00:00:09.867Z,94.49
2022-11-19T00:01:09.870Z,94.49
2022-11-19T00:02:09.881Z,94.60
2022-11-19T00:03:09.850Z,94.60
2022-11-19T00:04:09.867Z,94.60
2022-11-19T00:05:09.810Z,94.60
2022-11-19T00:06:09.816Z,94.18
2022-11-19T00:07:09.838Z,94.29
2022-11-19T00:08:09.780Z,94.49
2022-11-19T00:09:09.790Z,94.39
2022-11-19T00:10:09.801Z,94.49
2022-11-19T00:11:10.117Z,94.39
2022-11-19T00:12:09.740Z,94.29
2022-11-19T00:13:09.726Z,94.39
2022-11-19T00:14:09.723Z,94.18
2022-11-19T00:15:09.740Z,94.29
2022-11-19T00:16:09.738Z,94.49
2022-11-19T00:17:09.750Z,94.49
2022-11-19T00:18:09.678Z,94.60
2022-11-19T00:19:09.659Z,94.60
2022-11-19T00:20:09.652Z,94.70
2022-11-19T00:21:09.638Z,94.81
2022-11-19T00:22:09.641Z,94.81
2022-11-19T00:23:09.620Z,94.70
2022-11-19T00:24:09.606Z,94.49
2022-11-19T00:25:09.600Z,94.70
2022-11-19T00:26:09.582Z,94.70
2022-11-19T00:27:09.582Z,94.70
2022-11-19T00:28:09.572Z,94.60
2022-11-19T00:29:10.860Z,94.60
2022-11-19T00:30:19.869Z,94.60
2022-11-19T00:31:09.575Z,94.39
2022-11-19T00:32:09.537Z,94.49
2022-11-19T00:33:09.518Z,94.60
2022-11-19T00:34:09.505Z,94.18
2022-11-19T00:35:09.482Z,94.08
2022-11-19T00:36:09.493Z,94.08
2022-11-19T00:37:09.477Z,94.08
2022-11-19T00:38:09.489Z,94.08
2022-11-19T00:39:09.445Z,94.18
2022-11-19T00:40:09.434Z,94.18
2022-11-19T00:41:09.421Z,94.18
2022-11-19T00:42:09.423Z,94.29
2022-11-19T00:43:09.398Z,93.98
2022-11-19T00:44:10.059Z,93.77
2022-11-19T00:45:09.375Z,93.98
2022-11-19T00:46:09.371Z,93.98
2022-11-19T00:47:09.368Z,93.66
2022-11-19T00:48:09.346Z,93.60
2022-11-19T00:49:09.332Z,93.81
2022-11-19T00:50:09.327Z,93.66
2022-11-19T00:51:09.310Z,93.60
2022-11-19T00:52:09.313Z,93.60
2022-11-19T00:53:09.287Z,93.81
2022-11-19T00:54:09.322Z,93.81
2022-11-19T00:55:09.274Z,94.02
2022-11-19T00:56:09.260Z,94.02
2022-11-19T00:57:09.254Z,93.81
2022-11-19T00:58:09.242Z,93.60
2022-11-19T00:59:09.223Z,93.60
2022-11-19T01:00:09.217Z,93.60
2022-11-19T01:01:09.299Z,93.50
2022-11-19T01:02:09.215Z,93.50
2022-11-19T01:03:09.181Z,93.71
2022-11-19T01:04:09.176Z,93.81
2022-11-19T01:05:09.158Z,94.02
2022-11-19T01:06:09.151Z,93.91
2022-11-19T01:07:09.207Z,93.71
2022-11-19T01:08:09.135Z,93.40
2022-11-19T01:09:09.117Z,93.40
2022-11-19T01:10:09.111Z,93.60
2022-11-19T01:11:09.092Z,93.50
2022-11-19T01:12:09.097Z,93.40
2022-11-19T01:13:09.071Z,93.50
2022-11-19T01:14:09.068Z,93.29
2022-11-19T01:15:09.050Z,93.29
2022-11-19T01:16:09.046Z,93.18
2022-11-19T01:17:09.042Z,93.29
2022-11-19T01:18:09.022Z,93.50
2022-11-19T01:19:09.006Z,93.40
2022-11-19T01:20:09.076Z,93.29
2022-11-19T01:21:08.985Z,93.18
2022-11-19T01:22:08.988Z,93.40
2022-11-19T01:23:08.968Z,93.50
2022-11-19T01:24:08.965Z,93.40
2022-11-19T01:25:08.942Z,93.18
2022-11-19T01:26:08.936Z,93.08
2022-11-19T01:27:08.934Z,93.08
2022-11-19T01:28:08.916Z,93.08
2022-11-19T01:29:08.897Z,92.97
2022-11-19T01:30:08.890Z,93.08
2022-11-19T01:31:08.878Z,93.18
2022-11-19T01:32:08.879Z,93.08
2022-11-19T01:33:08.856Z,92.97
2022-11-19T01:34:08.847Z,92.77
2022-11-19T01:35:08.834Z,92.66
2022-11-19T01:36:08.825Z,92.56
2022-11-19T01:37:08.820Z,92.46
2022-11-19T01:38:08.809Z,92.56
2022-11-19T01:39:08.793Z,92.46
2022-11-19T01:40:08.784Z,92.56
2022-11-19T01:41:08.769Z,92.56
2022-11-19T01:42:08.771Z,92.66
2022-11-19T01:43:08.750Z,92.66
2022-11-19T01:44:08.739Z,92.66
2022-11-19T01:45:08.725Z,92.66
2022-11-19T01:46:08.724Z,92.87
2022-11-19T01:47:08.720Z,93.08
2022-11-19T01:48:08.696Z,93.18
2022-11-19T01:49:08.680Z,93.18
2022-11-19T01:50:08.676Z,92.97
2022-11-19T01:51:08.661Z,92.66
2022-11-19T01:52:08.653Z,92.66
2022-11-19T01:53:08.649Z,92.66
2022-11-19T01:54:08.633Z,92.66
2022-11-19T01:55:08.615Z,92.87
2022-11-19T01:56:08.610Z,92.97
2022-11-19T01:57:08.594Z,93.08
2022-11-19T01:58:08.599Z,92.97
2022-11-19T01:59:08.573Z,92.66
2022-11-19T02:00:08.568Z,92.77
2022-11-19T02:01:08.566Z,92.87
2022-11-19T02:02:08.545Z,92.77
2022-11-19T02:03:08.540Z,92.66
2022-11-19T02:04:08.523Z,92.77
2022-11-19T02:05:08.506Z,92.87
2022-11-19T02:06:08.503Z,92.87
2022-11-19T02:07:08.539Z,92.77
2022-11-19T02:08:08.487Z,92.77
2022-11-19T02:09:08.463Z,92.46
2022-11-19T02:10:08.457Z,92.56
2022-11-19T02:11:08.443Z,92.56
2022-11-19T02:12:08.437Z,92.35
2022-11-19T02:13:08.430Z,92.35
2022-11-19T02:14:08.414Z,92.66
2022-11-19T02:15:08.400Z,92.66
2022-11-19T02:16:08.400Z,92.25
2022-11-19T02:17:08.377Z,92.35
2022-11-19T02:18:08.388Z,92.66
2022-11-19T02:19:08.358Z,92.35
2022-11-19T02:20:08.351Z,92.35
2022-11-19T02:21:08.334Z,92.56
2022-11-19T02:22:08.327Z,92.66
2022-11-19T02:23:08.314Z,92.77
2022-11-19T02:24:08.318Z,92.87
2022-11-19T02:25:08.289Z,92.46
2022-11-19T02:26:08.283Z,92.35
2022-11-19T02:27:08.271Z,92.29
2022-11-19T02:28:08.261Z,92.40
2022-11-19T02:29:08.258Z,92.40
2022-11-19T02:30:08.242Z,92.40
2022-11-19T02:31:08.225Z,92.50
2022-11-19T02:32:08.227Z,92.29
2022-11-19T02:33:08.203Z,92.29
2022-11-19T02:34:08.206Z,92.29
2022-11-19T02:35:08.197Z,92.40
2022-11-19T02:36:08.176Z,92.29
2022-11-19T02:37:08.164Z,92.29
2022-11-19T02:38:08.153Z,92.40
2022-11-19T02:39:08.148Z,92.25
2022-11-19T02:40:08.131Z,92.50
2022-11-19T02:41:08.116Z,92.35
2022-11-19T02:42:08.114Z,92.46
2022-11-19T02:43:08.094Z,92.25
2022-11-19T02:44:08.097Z,91.77
2022-11-19T02:45:08.075Z,91.77
2022-11-19T02:46:08.066Z,91.87
2022-11-19T02:47:08.054Z,92.08
2022-11-19T02:48:08.048Z,92.29
2022-11-19T02:49:08.042Z,92.40
2022-11-19T02:50:08.028Z,92.50
2022-11-19T02:51:08.008Z,92.40
2022-11-19T02:52:08.003Z,91.97
2022-11-19T02:53:07.985Z,92.18
2022-11-19T02:54:07.989Z,92.18
2022-11-19T02:55:07.964Z,92.18
2022-11-19T02:56:07.974Z,92.18
2022-11-19T02:57:07.942Z,92.08
2022-11-19T02:58:07.939Z,92.08
2022-11-19T02:59:07.929Z,91.87
2022-11-19T03:00:07.923Z,91.87
2022-11-19T03:01:07.970Z,92.18
2022-11-19T03:02:07.894Z,92.08
2022-11-19T03:03:07.879Z,92.18
2022-11-19T03:04:07.892Z,92.08
2022-11-19T03:05:07.856Z,91.97
2022-11-19T03:06:07.850Z,92.08
2022-11-19T03:07:07.902Z,91.77
2022-11-19T03:08:07.829Z,91.97
2022-11-19T03:09:07.813Z,92.08
2022-11-19T03:10:07.817Z,92.18
2022-11-19T03:11:07.790Z,92.29
2022-11-19T03:12:07.786Z,92.29
2022-11-19T03:13:07.770Z,92.50
2022-11-19T03:14:07.766Z,92.50
2022-11-19T03:15:07.754Z,92.08
2022-11-19T03:16:07.770Z,91.87
2022-11-19T03:17:07.731Z,91.87
2022-11-19T03:18:07.737Z,91.77
2022-11-19T03:19:07.723Z,91.66
2022-11-19T03:20:07.710Z,91.87
2022-11-19T03:21:07.681Z,92.08
2022-11-19T03:22:07.676Z,92.18
2022-11-19T03:23:07.662Z,92.29
2022-11-19T03:24:07.655Z,92.29
2022-11-19T03:25:07.648Z,92.08
2022-11-19T03:26:07.632Z,92.18
2022-11-19T03:27:07.624Z,92.18
2022-11-19T03:28:07.610Z,92.29
2022-11-19T03:29:07.600Z,92.29
2022-11-19T03:30:07.696Z,92.18
2022-11-19T03:31:07.578Z,91.97
2022-11-19T03:32:07.565Z,91.66
2022-11-19T03:33:07.557Z,91.87
2022-11-19T03:34:07.543Z,91.87
2022-11-19T03:35:07.547Z,91.87
2022-11-19T03:36:07.520Z,91.87
2022-11-19T03:37:07.514Z,91.91
2022-11-19T03:38:07.500Z,91.91
2022-11-19T03:39:07.492Z,92.02
2022-11-19T03:40:07.488Z,92.12
2022-11-19T03:41:07.473Z,92.02
2022-11-19T03:42:07.456Z,92.12
2022-11-19T03:43:07.459Z,91.91
2022-11-19T03:44:07.434Z,91.91
2022-11-19T03:45:07.436Z,91.91
2022-11-19T03:46:07.414Z,91.91
2022-11-19T03:47:07.415Z,91.71
2022-11-19T03:48:07.391Z,91.50
2022-11-19T03:49:07.387Z,91.60
2022-11-19T03:50:07.380Z,91.60
2022-11-19T03:51:07.361Z,91.50
2022-11-19T03:52:07.351Z,91.60
2022-11-19T03:53:07.341Z,91.50
2022-11-19T03:54:07.325Z,91.39
2022-11-19T03:55:07.327Z,91.29
2022-11-19T03:56:07.302Z,91.39
2022-11-19T03:57:07.301Z,91.60
2022-11-19T03:58:07.282Z,91.91
2022-11-19T03:59:08.589Z,91.71
2022-11-19T04:00:07.273Z,91.50
2022-11-19T04:01:07.256Z,91.60
2022-11-19T04:02:07.291Z,91.71
2022-11-19T04:03:07.231Z,91.50
2022-11-19T04:04:07.220Z,91.39
2022-11-19T04:05:07.228Z,91.39
2022-11-19T04:06:07.194Z,90.97
2022-11-19T04:07:07.228Z,90.87
2022-11-19T04:08:07.175Z,90.87
2022-11-19T04:09:07.170Z,91.29
2022-11-19T04:10:07.154Z,91.18
2022-11-19T04:11:38.423Z,91.08
2022-11-19T04:12:39.413Z,90.97
2022-11-19T04:13:39.397Z,90.77
2022-11-19T04:14:39.393Z,90.77
2022-11-19T04:15:39.387Z,90.97
2022-11-19T04:16:39.372Z,90.87
2022-11-19T04:17:39.356Z,90.77
2022-11-19T04:18:39.349Z,90.87
2022-11-19T04:19:39.333Z,90.87
2022-11-19T04:20:39.337Z,90.87
2022-11-19T04:21:39.313Z,90.87
2022-11-19T04:22:39.307Z,90.87
2022-11-19T04:23:39.290Z,91.02
2022-11-19T04:24:39.285Z,91.12
2022-11-19T04:25:39.282Z,91.12
2022-11-19T04:26:39.263Z,91.12
2022-11-19T04:27:39.252Z,91.12
2022-11-19T04:28:39.242Z,91.02
2022-11-19T04:29:39.226Z,91.12
2022-11-19T04:30:39.229Z,91.02
2022-11-19T04:31:39.208Z,91.12
2022-11-19T04:32:39.203Z,91.22
2022-11-19T04:33:39.184Z,91.64
2022-11-19T04:34:39.179Z,91.64
2022-11-19T04:35:39.170Z,91.54
2022-11-19T04:36:39.156Z,91.64
2022-11-19T04:37:39.142Z,91.58
2022-11-19T04:38:39.132Z,91.58
2022-11-19T04:39:39.121Z,91.58
2022-11-19T04:40:39.124Z,91.58
2022-11-19T04:41:39.097Z,91.69
2022-11-19T04:42:39.092Z,91.58
2022-11-19T04:43:39.293Z,91.69
2022-11-19T04:44:39.083Z,91.58
2022-11-19T04:45:39.070Z,91.58
2022-11-19T04:46:39.080Z,91.58
2022-11-19T04:47:39.050Z,91.47
2022-11-19T04:48:39.024Z,91.58
2022-11-19T04:49:39.010Z,91.41
2022-11-19T04:50:39.006Z,91.62
2022-11-19T04:51:39.000Z,91.41
2022-11-19T04:52:41.052Z,91.52
2022-11-19T04:53:38.972Z,91.72
2022-11-19T04:54:38.963Z,91.94
2022-11-19T04:55:38.945Z,91.83
2022-11-19T04:56:38.949Z,91.83
2022-11-19T04:57:38.922Z,91.62
2022-11-19T04:58:38.918Z,91.77
2022-11-19T04:59:38.901Z,91.83
2022-11-19T05:00:38.896Z,91.83
2022-11-19T05:01:38.951Z,91.87
2022-11-19T05:02:38.900Z,91.98
2022-11-19T05:03:38.861Z,92.08
2022-11-19T05:04:38.853Z,92.08
2022-11-19T05:05:38.843Z,91.98
2022-11-19T05:06:38.843Z,92.08
2022-11-19T05:07:38.834Z,92.08
2022-11-19T05:08:38.810Z,92.19
2022-11-19T05:09:38.798Z,92.08
2022-11-19T05:10:38.788Z,92.08
2022-11-19T05:11:38.790Z,92.19
2022-11-19T05:12:38.769Z,92.40
2022-11-19T05:13:38.751Z,92.60
2022-11-19T05:14:38.746Z,92.60
2022-11-19T05:15:38.756Z,92.60
2022-11-19T05:16:38.758Z,92.71
2022-11-19T05:17:38.709Z,92.75
2022-11-19T05:18:38.701Z,92.96
2022-11-19T05:19:38.688Z,92.85
2022-11-19T05:20:38.680Z,92.75
2022-11-19T05:21:38.677Z,92.65
2022-11-19T05:22:38.659Z,92.65
2022-11-19T05:23:38.643Z,92.54
2022-11-19T05:24:38.639Z,92.44
2022-11-19T05:25:38.621Z,92.13
2022-11-19T05:26:38.629Z,92.13
2022-11-19T05:27:38.603Z,92.33
2022-11-19T05:28:39.980Z,92.44
2022-11-19T05:29:38.581Z,92.44
2022-11-19T05:30:38.574Z,92.38
2022-11-19T05:31:38.573Z,92.38
2022-11-19T05:32:38.554Z,92.38
2022-11-19T05:33:38.536Z,92.38
2022-11-19T05:34:38.531Z,92.16
2022-11-19T05:35:38.516Z,92.16
2022-11-19T05:36:38.517Z,92.16
2022-11-19T05:37:38.496Z,92.06
2022-11-19T05:38:38.487Z,92.06
2022-11-19T05:39:38.473Z,91.96
2022-11-19T05:40:38.465Z,92.06
2022-11-19T05:41:38.465Z,92.06
2022-11-19T05:42:38.440Z,91.85
2022-11-19T05:43:38.433Z,91.85
2022-11-19T05:44:38.417Z,91.75
2022-11-19T05:45:38.412Z,91.54
2022-11-19T05:46:38.406Z,91.33
2022-11-19T05:47:38.392Z,91.22
2022-11-19T05:48:38.374Z,91.43
2022-11-19T05:49:38.368Z,91.75
2022-11-19T05:50:38.352Z,91.33
2022-11-19T05:51:38.356Z,91.43
2022-11-19T05:52:38.341Z,91.22
2022-11-19T05:53:38.325Z,90.70
2022-11-19T05:54:38.309Z,90.70
2022-11-19T05:55:38.301Z,90.70
2022-11-19T05:56:38.296Z,90.70
2022-11-19T05:57:38.287Z,90.59
2022-11-19T05:58:38.266Z,90.49
2022-11-19T05:59:43.338Z,90.39
2022-11-19T06:00:38.258Z,90.43
2022-11-19T06:01:38.252Z,90.22
2022-11-19T06:02:38.266Z,89.80
2022-11-19T06:03:38.217Z,89.80
2022-11-19T06:04:38.271Z,89.59
2022-11-19T06:05:40.455Z,89.80
2022-11-19T06:06:38.195Z,89.90
2022-11-19T06:07:38.207Z,89.70
2022-11-19T06:08:38.160Z,89.59
2022-11-19T06:09:38.154Z,89.70
2022-11-19T06:10:38.140Z,89.70
2022-11-19T06:11:38.142Z,89.70
2022-11-19T06:12:41.264Z,89.80
2022-11-19T06:13:38.116Z,89.80
2022-11-19T06:14:38.103Z,89.90
2022-11-19T06:15:38.089Z,89.80
2022-11-19T06:16:38.082Z,90.01
2022-11-19T06:17:38.067Z,90.01
2022-11-19T06:18:38.052Z,90.11
2022-11-19T06:19:38.046Z,89.48
2022-11-19T06:20:38.031Z,89.17
2022-11-19T06:21:38.036Z,89.28
2022-11-19T06:22:38.012Z,89.38
2022-11-19T06:23:38.011Z,89.07
2022-11-19T06:24:37.988Z,89.17
2022-11-19T06:25:37.984Z,89.28
2022-11-19T06:26:37.975Z,89.38
2022-11-19T06:27:37.964Z,89.17
2022-11-19T06:28:37.948Z,89.17
2022-11-19T06:29:37.940Z,88.96
2022-11-19T06:30:37.923Z,88.69
2022-11-19T06:31:38.424Z,88.86
2022-11-19T06:32:37.906Z,88.59
2022-11-19T06:33:37.917Z,88.34
2022-11-19T06:34:37.882Z,88.34
2022-11-19T06:35:37.909Z,88.48
2022-11-19T06:36:41.952Z,88.79
2022-11-19T06:37:37.874Z,88.48
2022-11-19T06:38:37.837Z,88.48
2022-11-19T06:39:37.834Z,88.59
2022-11-19T06:40:37.818Z,88.48
2022-11-19T06:41:37.810Z,88.17
2022-11-19T06:42:37.813Z,88.17
2022-11-19T06:43:37.787Z,88.17
2022-11-19T06:44:37.776Z,88.06
2022-11-19T06:45:37.770Z,87.96
2022-11-19T06:46:37.753Z,88.06
2022-11-19T06:47:37.758Z,87.96
2022-11-19T06:48:37.731Z,87.96
2022-11-19T06:49:37.724Z,87.54
2022-11-19T06:50:37.712Z,87.33
2022-11-19T06:51:37.706Z,87.23
2022-11-19T06:52:37.697Z,87.23
2022-11-19T06:53:37.683Z,87.43
2022-11-19T06:54:41.749Z,87.01
2022-11-19T06:55:37.666Z,86.60
2022-11-19T06:56:37.647Z,86.18
2022-11-19T06:57:37.647Z,86.28
2022-11-19T06:58:37.624Z,86.28
2022-11-19T06:59:37.619Z,86.18
2022-11-19T07:00:37.603Z,85.97
2022-11-19T07:01:37.632Z,86.07
2022-11-19T07:02:37.595Z,86.22
2022-11-19T07:03:37.588Z,86.32
2022-11-19T07:04:37.561Z,86.11
2022-11-19T07:05:37.566Z,86.11
2022-11-19T07:06:37.541Z,86.53
2022-11-19T07:07:37.599Z,86.11
2022-11-19T07:08:37.524Z,85.69
2022-11-19T07:09:37.514Z,85.69
2022-11-19T07:10:37.500Z,85.59
2022-11-19T07:11:37.489Z,85.59
2022-11-19T07:12:37.492Z,85.90
2022-11-19T07:13:37.466Z,85.59
2022-11-19T07:14:37.467Z,85.90
2022-11-19T07:15:37.445Z,85.69
2022-11-19T07:16:37.439Z,85.48
2022-11-19T07:17:37.437Z,85.80
2022-11-19T07:18:37.420Z,85.80
2022-11-19T07:19:37.405Z,85.48
2022-11-19T07:20:37.397Z,85.27
2022-11-19T07:21:37.383Z,85.06
2022-11-19T07:22:37.384Z,84.96
2022-11-19T07:23:37.440Z,85.06
2022-11-19T07:24:37.351Z,85.17
2022-11-19T07:25:37.410Z,85.06
2022-11-19T07:26:37.330Z,85.06
2022-11-19T07:27:37.348Z,85.27
2022-11-19T07:28:37.310Z,85.27
2022-11-19T07:29:37.312Z,85.17
2022-11-19T07:30:37.296Z,85.06
2022-11-19T07:31:37.275Z,85.17
2022-11-19T07:32:37.281Z,85.06
2022-11-19T07:33:37.250Z,85.06
2022-11-19T07:34:37.246Z,85.06
2022-11-19T07:35:37.231Z,85.27
2022-11-19T07:36:37.229Z,85.17
2022-11-19T07:37:37.222Z,85.06
2022-11-19T07:38:37.363Z,85.06
2022-11-19T07:39:37.187Z,84.85
2022-11-19T07:40:37.186Z,84.85
2022-11-19T07:41:37.178Z,84.96
2022-11-19T07:42:37.169Z,84.85
2022-11-19T07:43:37.146Z,84.75
2022-11-19T07:44:37.139Z,84.75
2022-11-19T07:45:37.146Z,84.85
2022-11-19T07:46:37.115Z,84.54
2022-11-19T07:47:37.118Z,84.54
2022-11-19T07:48:37.096Z,84.54
2022-11-19T07:49:37.086Z,84.22
2022-11-19T07:50:37.074Z,84.19
2022-11-19T07:51:37.060Z,84.29
2022-11-19T07:52:37.073Z,84.08
2022-11-19T07:53:37.037Z,84.29
2022-11-19T07:54:37.031Z,83.87
2022-11-19T07:55:37.068Z,83.98
2022-11-19T07:56:37.044Z,83.98
2022-11-19T07:57:36.994Z,83.98
2022-11-19T07:58:36.999Z,83.98
2022-11-19T07:59:36.972Z,83.77
2022-11-19T08:00:36.967Z,83.77
2022-11-19T08:01:37.047Z,83.66
2022-11-19T08:02:36.949Z,83.35
2022-11-19T08:03:36.954Z,83.45
2022-11-19T08:04:36.923Z,83.66
2022-11-19T08:05:36.913Z,83.35
2022-11-19T08:06:36.904Z,83.14
2022-11-19T08:07:36.924Z,83.03
2022-11-19T08:08:36.894Z,83.35
2022-11-19T08:09:36.866Z,83.66
2022-11-19T08:10:36.860Z,83.77
2022-11-19T08:11:36.844Z,83.35
2022-11-19T08:12:36.838Z,83.45
2022-11-19T08:13:36.836Z,83.03
2022-11-19T08:14:36.823Z,83.03
2022-11-19T08:15:36.801Z,82.93
2022-11-19T08:16:36.803Z,82.72
2022-11-19T08:17:36.780Z,82.93
2022-11-19T08:18:36.784Z,82.93
2022-11-19T08:19:36.758Z,83.03
2022-11-19T08:20:36.754Z,82.93
2022-11-19T08:21:36.742Z,82.20
2022-11-19T08:22:36.731Z,82.62
2022-11-19T08:23:36.727Z,82.93
2022-11-19T08:24:36.709Z,82.68
2022-11-19T08:25:36.696Z,82.26
2022-11-19T08:26:36.692Z,82.37
2022-11-19T08:27:36.676Z,82.68
2022-11-19T08:28:36.681Z,82.68
2022-11-19T08:29:36.655Z,82.89
2022-11-19T08:30:36.649Z,82.58
2022-11-19T08:31:36.662Z,82.16
2022-11-19T08:32:36.635Z,81.85
2022-11-19T08:33:36.681Z,81.85
2022-11-19T08:34:36.603Z,81.74
2022-11-19T08:35:36.594Z,81.85
2022-11-19T08:36:36.582Z,81.53
2022-11-19T08:37:36.603Z,81.74
2022-11-19T08:38:38.820Z,82.06
2022-11-19T08:39:36.553Z,81.43
2022-11-19T08:40:36.540Z,81.12
2022-11-19T08:41:36.525Z,81.43
2022-11-19T08:42:36.516Z,81.43
2022-11-19T08:43:36.514Z,81.12
2022-11-19T08:44:36.493Z,80.59
2022-11-19T08:45:36.484Z,80.66
2022-11-19T08:46:36.472Z,81.07
2022-11-19T08:47:36.476Z,80.76
2022-11-19T08:48:36.471Z,80.66
2022-11-19T08:49:36.454Z,80.55
2022-11-19T08:50:36.435Z,80.97
2022-11-19T08:51:36.417Z,80.55
2022-11-19T08:52:36.410Z,80.87
2022-11-19T08:53:36.395Z,80.45
2022-11-19T08:54:36.403Z,80.13
2022-11-19T08:55:36.376Z,80.35
2022-11-19T08:56:36.370Z,79.93
2022-11-19T08:57:36.350Z,80.13
2022-11-19T08:58:36.344Z,80.13
2022-11-19T08:59:36.344Z,79.82
2022-11-19T09:00:36.372Z,79.40
2022-11-19T09:01:36.313Z,78.99
2022-11-19T09:02:36.302Z,79.40
2022-11-19T09:03:36.290Z,78.99
2022-11-19T09:04:36.290Z,79.09
2022-11-19T09:05:36.267Z,78.99
2022-11-19T09:06:36.256Z,78.85
2022-11-19T09:07:36.297Z,78.42
2022-11-19T09:08:36.236Z,78.42
2022-11-19T09:09:36.256Z,78.22
2022-11-19T09:10:36.216Z,78.74
2022-11-19T09:11:39.863Z,78.95
2022-11-19T09:12:36.199Z,78.22
2022-11-19T09:13:36.177Z,78.22
2022-11-19T09:14:36.181Z,77.59
2022-11-19T09:15:36.156Z,77.90
2022-11-19T09:16:36.152Z,78.18
2022-11-19T09:17:36.141Z,77.24
2022-11-19T09:18:36.132Z,76.93
2022-11-19T09:19:36.242Z,76.51
2022-11-19T09:20:36.109Z,76.61
2022-11-19T09:21:36.091Z,76.30
2022-11-19T09:22:36.088Z,76.40
2022-11-19T09:23:36.070Z,76.61
2022-11-19T09:24:36.072Z,76.40
2022-11-19T09:25:36.051Z,75.57
2022-11-19T09:26:36.041Z,75.46
2022-11-19T09:27:36.031Z,75.88
2022-11-19T09:28:36.021Z,75.57
2022-11-19T09:29:36.020Z,75.46
2022-11-19T09:30:36.004Z,75.22
2022-11-19T09:31:35.984Z,75.63
2022-11-19T09:32:35.976Z,74.91
2022-11-19T09:33:35.966Z,74.91
2022-11-19T09:34:35.966Z,75.12
2022-11-19T09:35:35.944Z,74.91
2022-11-19T09:36:35.935Z,74.28
2022-11-19T09:37:35.919Z,74.69
2022-11-19T09:38:35.915Z,74.49
2022-11-19T09:39:35.912Z,73.96
2022-11-19T09:40:35.892Z,74.14
2022-11-19T09:41:35.876Z,74.56
2022-11-19T09:42:35.872Z,74.04
2022-11-19T09:43:35.859Z,74.14
2022-11-19T09:44:35.861Z,74.35
2022-11-19T09:45:35.835Z,74.04
2022-11-19T09:46:35.827Z,73.93
2022-11-19T09:47:35.812Z,73.62
2022-11-19T09:48:35.832Z,73.62
2022-11-19T09:49:35.797Z,73.30
2022-11-19T09:50:35.784Z,73.41
2022-11-19T09:51:35.767Z,73.17
2022-11-19T09:52:35.760Z,73.27
2022-11-19T09:53:35.768Z,72.44
2022-11-19T09:54:35.748Z,73.07
2022-11-19T09:55:35.726Z,72.64
2022-11-19T09:56:35.724Z,72.64
2022-11-19T09:57:35.811Z,72.85
2022-11-19T09:58:35.693Z,72.33
2022-11-19T09:59:35.695Z,72.64
2022-11-19T10:00:35.670Z,72.96
2022-11-19T10:01:35.666Z,72.13
2022-11-19T10:02:35.685Z,72.23
2022-11-19T10:03:35.643Z,72.33
2022-11-19T10:04:35.639Z,71.81
2022-11-19T10:05:35.624Z,71.60
2022-11-19T10:06:35.605Z,71.39
2022-11-19T10:07:35.646Z,71.81
2022-11-19T10:08:35.586Z,71.70
2022-11-19T10:09:35.588Z,71.29
2022-11-19T10:10:35.564Z,71.39
2022-11-19T10:11:35.552Z,70.98
2022-11-19T10:12:35.546Z,70.98
2022-11-19T10:13:35.535Z,71.50
2022-11-19T10:14:35.534Z,71.08
2022-11-19T10:15:37.797Z,70.63
2022-11-19T10:16:35.507Z,70.53
2022-11-19T10:17:35.488Z,70.73
2022-11-19T10:18:35.484Z,70.84
2022-11-19T10:19:35.504Z,70.94
2022-11-19T10:20:35.462Z,71.36
2022-11-19T10:21:35.446Z,71.47
2022-11-19T10:22:35.439Z,71.47
2022-11-19T10:23:35.426Z,71.47
2022-11-19T10:24:35.418Z,71.47
2022-11-19T10:25:35.412Z,71.36
2022-11-19T10:26:35.397Z,71.15
2022-11-19T10:27:35.381Z,71.75
2022-11-19T10:28:35.373Z,71.33
2022-11-19T10:29:35.358Z,70.91
2022-11-19T10:30:35.361Z,70.94
2022-11-19T10:31:35.339Z,71.67
2022-11-19T10:32:35.330Z,71.85
2022-11-19T10:33:35.329Z,72.06
2022-11-19T10:34:35.313Z,71.33
2022-11-19T10:35:35.305Z,71.12
2022-11-19T10:36:35.288Z,70.39
2022-11-19T10:37:35.274Z,70.60
2022-11-19T10:38:35.271Z,70.07
2022-11-19T10:39:35.254Z,69.66
2022-11-19T10:40:35.255Z,69.97
2022-11-19T10:41:35.240Z,70.28
2022-11-19T10:42:35.222Z,70.15
2022-11-19T10:43:35.212Z,69.66
2022-11-19T10:44:35.207Z,70.18
2022-11-19T10:45:35.199Z,70.46
2022-11-19T10:46:35.189Z,70.18
2022-11-19T10:47:35.165Z,70.46
2022-11-19T10:48:35.158Z,70.56
2022-11-19T10:49:35.149Z,70.46
2022-11-19T10:50:35.149Z,70.78
2022-11-19T10:51:35.122Z,70.56
2022-11-19T10:52:35.120Z,69.84
2022-11-19T10:53:35.100Z,69.31
2022-11-19T10:54:35.095Z,69.31
2022-11-19T10:55:35.092Z,69.42
2022-11-19T10:56:35.076Z,69.42
2022-11-19T10:57:35.060Z,69.28
2022-11-19T10:58:35.052Z,68.17
2022-11-19T10:59:35.039Z,68.59
2022-11-19T11:00:35.088Z,69.10
2022-11-19T11:01:35.033Z,69.10
2022-11-19T11:02:35.008Z,69.21
2022-11-19T11:03:34.993Z,68.38
2022-11-19T11:04:34.987Z,68.90
2022-11-19T11:05:34.983Z,68.97
2022-11-19T11:06:34.964Z,68.87
2022-11-19T11:07:35.009Z,68.76
2022-11-19T11:08:34.944Z,68.35
2022-11-19T11:09:34.942Z,68.24
2022-11-19T11:10:34.933Z,68.13
2022-11-19T11:11:34.906Z,68.45
2022-11-19T11:12:34.911Z,67.93
2022-11-19T11:13:34.886Z,68.35
2022-11-19T11:14:34.882Z,68.66
2022-11-19T11:15:34.882Z,68.35
2022-11-19T11:16:37.796Z,68.35
2022-11-19T11:17:34.842Z,67.93
2022-11-19T11:18:34.834Z,67.51
2022-11-19T11:19:34.820Z,67.41
2022-11-19T11:20:34.813Z,67.30
2022-11-19T11:21:34.806Z,67.17
2022-11-19T11:22:34.792Z,67.17
2022-11-19T11:23:34.776Z,67.48
2022-11-19T11:24:34.770Z,67.27
2022-11-19T11:25:34.756Z,67.90
2022-11-19T11:26:34.759Z,67.90
2022-11-19T11:27:34.735Z,67.69
2022-11-19T11:28:34.745Z,67.48
2022-11-19T11:29:34.712Z,67.79
2022-11-19T11:30:34.751Z,68.07
2022-11-19T11:31:34.703Z,67.86
2022-11-19T11:32:34.686Z,67.76
2022-11-19T11:33:34.667Z,67.76
2022-11-19T11:34:34.660Z,67.14
2022-11-19T11:35:34.647Z,66.83
2022-11-19T11:36:34.652Z,66.62
2022-11-19T11:37:34.637Z,66.41
2022-11-19T11:38:34.622Z,65.99
2022-11-19T11:39:34.607Z,66.20
2022-11-19T11:40:34.622Z,66.72
2022-11-19T11:42:34.583Z,66.30
2022-11-19T11:43:34.563Z,66.62
2022-11-19T11:44:34.552Z,66.72
2022-11-19T11:45:34.539Z,66.72
2022-11-19T11:46:34.538Z,67.03
2022-11-19T11:47:34.517Z,67.03
2022-11-19T11:48:34.512Z,66.59
2022-11-19T11:49:34.495Z,65.96
2022-11-19T11:50:34.492Z,66.38
2022-11-19T11:51:34.489Z,66.59
2022-11-19T11:52:34.468Z,65.86
2022-11-19T11:53:34.452Z,65.96
2022-11-19T11:54:34.450Z,66.80
2022-11-19T11:55:34.431Z,66.59
2022-11-19T11:56:34.434Z,65.96
2022-11-19T11:57:34.413Z,65.34
2022-11-19T11:58:34.408Z,65.86
2022-11-19T11:59:34.391Z,65.03
2022-11-19T12:00:34.380Z,65.13
2022-11-19T12:01:34.376Z,65.13
2022-11-19T12:02:34.411Z,64.92
2022-11-19T12:03:41.440Z,64.82
2022-11-19T12:04:34.346Z,64.92
2022-11-19T12:05:34.322Z,65.34
2022-11-19T12:06:34.325Z,65.34
2022-11-19T12:07:34.363Z,64.72
2022-11-19T12:08:34.295Z,64.51
2022-11-19T12:09:34.280Z,65.03
2022-11-19T12:10:34.273Z,64.61
2022-11-19T12:11:34.268Z,64.92
2022-11-19T12:12:34.257Z,64.09
2022-11-19T12:13:34.241Z,63.75
2022-11-19T12:14:34.234Z,63.75
2022-11-19T12:15:34.217Z,63.96
2022-11-19T12:16:34.220Z,64.17
2022-11-19T12:17:34.194Z,64.48
2022-11-19T12:18:34.186Z,64.89
2022-11-19T12:19:34.171Z,63.23
2022-11-19T12:20:34.166Z,62.71
2022-11-19T12:21:34.160Z,63.02
2022-11-19T12:22:34.142Z,63.02
2022-11-19T12:23:34.132Z,62.81
2022-11-19T12:24:34.120Z,63.54
2022-11-19T12:25:34.104Z,63.02
2022-11-19T12:26:34.109Z,63.02
2022-11-19T12:27:34.085Z,63.12
2022-11-19T12:28:34.188Z,62.50
2022-11-19T12:29:34.061Z,62.29
2022-11-19T12:30:34.058Z,63.02
2022-11-19T12:31:34.051Z,62.29
2022-11-19T12:32:34.035Z,61.67
2022-11-19T12:33:34.024Z,60.94
2022-11-19T12:34:34.027Z,61.04
2022-11-19T12:35:33.998Z,62.29
2022-11-19T12:36:34.002Z,62.71
2022-11-19T12:37:33.976Z,62.50
2022-11-19T12:38:33.969Z,62.92
2022-11-19T12:39:33.955Z,62.50
2022-11-19T12:40:39.541Z,62.71
2022-11-19T12:41:33.942Z,62.50
2022-11-19T12:42:33.940Z,62.92
2022-11-19T12:43:33.911Z,63.43
2022-11-19T12:44:33.906Z,63.64
2022-11-19T12:45:33.888Z,63.43
2022-11-19T12:46:33.887Z,63.23
2022-11-19T12:47:33.876Z,63.12
2022-11-19T12:48:33.859Z,63.51
2022-11-19T12:49:33.848Z,63.12
2022-11-19T12:50:33.839Z,63.23
2022-11-19T12:51:33.825Z,62.88
2022-11-19T12:52:33.827Z,63.12
2022-11-19T12:53:33.804Z,62.50